Time;durP1;ratioP1;P1;durP2;ratioP2;P2;SDS_P1;SDS_P2;PMS_P1;PMS_P2;Temp;Humidity;BMP_temperature;BMP_pressure;BME280_temperature;BME280_humidity;BME280_pressure;Samples;Min_cycle;Max_cycle;Signal;HPM_P1;HPM_P2
2023/06/13 00:00:05;;;;;;;7.30;1.73;;;14.70;63.30;;;;;;5056059;28;20166;-70
2023/06/13 00:02:31;;;;;;;0.97;0.93;;;14.70;62.60;;;;;;5056054;28;20401;-70
2023/06/13 00:04:57;;;;;;;3.83;3.53;;;14.70;84.90;;;;;;5056257;28;20415;-71
2023/06/13 00:07:23;;;;;;;1.27;1.27;;;14.60;63.20;;;;;;5055951;28;20416;-71
2023/06/13 00:09:49;;;;;;;0.90;0.77;;;14.70;63.90;;;;;;5055888;28;20421;-69
2023/06/13 00:12:19;;;;;;;1.03;1.00;;;14.70;63.70;;;;;;5056319;28;20750;-69
2023/06/13 00:14:46;;;;;;;1.77;1.63;;;14.60;63.90;;;;;;5056307;28;20177;-70
2023/06/13 00:17:12;;;;;;;1.63;0.80;;;14.60;65.20;;;;;;5055488;28;20434;-71
2023/06/13 00:19:38;;;;;;;1.20;1.20;;;14.60;65.80;;;;;;5055804;28;20414;-70
2023/06/13 00:22:05;;;;;;;0.70;0.70;;;14.60;65.70;;;;;;5055892;28;20174;-71
2023/06/13 00:24:30;;;;;;;1.37;0.87;;;14.50;65.80;;;;;;5055605;28;20507;-69
2023/06/13 00:26:56;;;;;;;0.80;0.80;;;14.50;64.60;;;;;;5055443;28;20422;-70
2023/06/13 00:29:22;;;;;;;0.93;0.93;;;14.50;65.40;;;;;;5055632;28;20175;-71
2023/06/13 00:31:48;;;;;;;1.60;1.50;;;14.40;66.20;;;;;;5055620;28;20197;-70
2023/06/13 00:34:14;;;;;;;0.80;0.80;;;14.40;67.20;;;;;;5055641;28;20230;-71
2023/06/13 00:36:43;;;;;;;2.07;1.90;;;14.30;67.70;;;;;;5055178;28;20428;-71
2023/06/13 00:39:09;;;;;;;1.17;1.17;;;14.30;69.40;;;;;;5055459;28;20408;-71
2023/06/13 00:41:35;;;;;;;1.27;1.20;;;14.30;69.00;;;;;;5055286;28;20954;-69
2023/06/13 00:44:01;;;;;;;1.00;1.00;;;14.40;68.20;;;;;;5055229;28;20452;-69
2023/06/13 00:46:34;;;;;;;1.03;1.03;;;14.40;67.60;;;;;;5054993;28;20642;-70
2023/06/13 00:49:00;;;;;;;0.83;0.83;;;14.50;67.20;;;;;;5054036;28;20435;-70
2023/06/13 00:51:27;;;;;;;1.03;0.80;;;14.40;67.80;;;;;;5055061;28;20412;-71
2023/06/13 00:53:54;;;;;;;2.73;2.50;;;14.30;66.10;;;;;;5055164;28;20487;-71
2023/06/13 00:56:20;;;;;;;0.93;0.93;;;14.30;66.40;;;;;;5054862;28;20803;-69
2023/06/13 00:58:45;;;;;;;1.20;1.20;;;14.40;64.90;;;;;;5055052;28;20488;-69
2023/06/13 01:01:13;;;;;;;0.60;0.60;;;14.40;64.10;;;;;;5055030;28;20230;-70
2023/06/13 01:03:45;;;;;;;1.03;1.03;;;14.50;61.10;;;;;;5054929;28;20198;-70
2023/06/13 01:06:10;;;;;;;1.20;1.20;;;14.60;62.50;;;;;;5054654;28;20578;-71
2023/06/13 01:08:37;;;;;;;0.67;0.67;;;14.70;62.60;;;;;;5054782;28;20502;-70
2023/06/13 01:11:10;;;;;;;1.00;1.00;;;14.70;63.30;;;;;;5054781;28;20257;-70
2023/06/13 01:13:47;;;;;;;0.70;0.70;;;14.70;62.80;;;;;;5054912;28;20805;-70
2023/06/13 01:16:35;;;;;;;1.57;1.47;;;14.80;63.90;;;;;;5054510;28;20467;-71
2023/06/13 01:19:05;;;;;;;0.80;0.63;;;14.80;64.40;;;;;;5054613;28;20413;-70
2023/06/13 01:21:32;;;;;;;1.50;1.40;;;14.50;64.40;;;;;;5054609;28;20413;-71
2023/06/13 01:24:00;;;;;;;0.90;0.90;;;14.50;65.00;;;;;;5054544;28;20500;-71
2023/06/13 01:26:49;;;;;;;0.67;0.67;;;14.60;63.90;;;;;;5054197;28;20429;-70
2023/06/13 01:29:17;;;;;;;0.70;0.70;;;14.50;64.10;;;;;;5054357;28;20432;-71
2023/06/13 01:31:46;;;;;;;1.13;1.07;;;14.50;65.50;;;;;;5054346;28;20466;-69
2023/06/13 01:34:12;;;;;;;1.27;1.27;;;14.60;65.80;;;;;;5054392;28;20772;-69
2023/06/13 01:36:39;;;;;;;0.97;0.97;;;14.60;65.80;;;;;;5053994;28;20434;-71
2023/06/13 01:39:04;;;;;;;2.07;1.97;;;14.60;65.40;;;;;;5054414;28;20484;-71
2023/06/13 01:41:30;;;;;;;0.97;0.87;;;14.40;65.30;;;;;;5054092;28;20499;-71
2023/06/13 01:43:56;;;;;;;1.40;1.30;;;14.30;64.40;;;;;;5054052;28;20206;-69
2023/06/13 01:46:29;;;;;;;0.47;0.47;;;14.30;63.30;;;;;;5054012;28;20559;-69
2023/06/13 01:49:12;;;;;;;1.40;1.30;;;14.40;64.90;;;;;;5054084;28;20486;-71
2023/06/13 01:51:59;;;;;;;1.27;1.23;;;14.50;63.50;;;;;;5054277;28;20470;-69
2023/06/13 01:54:28;;;;;;;0.60;0.60;;;14.50;64.50;;;;;;5053835;28;20419;-69
2023/06/13 01:57:00;;;;;;;1.23;1.23;;;14.50;64.30;;;;;;5053784;28;20443;-70
2023/06/13 01:59:28;;;;;;;0.60;0.60;;;14.60;62.90;;;;;;5054016;28;20408;-70
2023/06/13 02:01:56;;;;;;;1.23;0.93;;;14.60;62.80;;;;;;5053768;28;20423;-70
2023/06/13 02:04:21;;;;;;;5.03;0.83;;;14.50;62.60;;;;;;5053648;28;20840;-70
2023/06/13 02:06:47;;;;;;;1.27;1.27;;;14.50;63.80;;;;;;5053437;28;20435;-69
2023/06/13 02:09:13;;;;;;;2.17;1.90;;;14.50;64.10;;;;;;5053883;28;20201;-70
2023/06/13 02:11:39;;;;;;;3.40;1.90;;;14.40;62.70;;;;;;5053730;28;20414;-70
2023/06/13 02:14:06;;;;;;;1.77;1.67;;;14.40;61.40;;;;;;5053705;28;20409;-71
2023/06/13 02:16:32;;;;;;;0.87;0.87;;;14.40;62.00;;;;;;5053404;28;20197;-71
2023/06/13 02:19:01;;;;;;;1.23;0.67;;;14.40;61.60;;;;;;5053534;28;20416;-70
2023/06/13 02:21:29;;;;;;;0.97;0.97;;;14.50;62.90;;;;;;5053726;28;20410;-70
2023/06/13 02:23:55;;;;;;;1.07;1.07;;;14.60;60.50;;;;;;5053399;28;20606;-69
2023/06/13 02:26:23;;;;;;;1.17;1.00;;;14.70;59.80;;;;;;5053241;28;20979;-69
2023/06/13 02:28:48;;;;;;;1.30;1.20;;;14.70;60.00;;;;;;5053580;28;20280;-70
2023/06/13 02:31:15;;;;;;;0.80;0.80;;;14.70;60.70;;;;;;5053584;28;20858;-70
2023/06/13 02:33:43;;;;;;;1.07;1.00;;;14.70;60.60;;;;;;5053353;28;20256;-70
2023/06/13 02:36:09;;;;;;;5.60;2.27;;;14.70;61.80;;;;;;5053301;28;20526;-70
2023/06/13 02:38:36;;;;;;;0.70;0.70;;;14.70;60.90;;;;;;5053537;28;20431;-70
2023/06/13 02:41:03;;;;;;;1.90;1.80;;;14.70;61.50;;;;;;5053421;28;20177;-71
2023/06/13 02:43:28;;;;;;;0.80;0.80;;;14.60;61.80;;;;;;5053353;28;20494;-70
2023/06/13 02:45:54;;;;;;;1.07;0.80;;;14.40;63.00;;;;;;5053107;28;20427;-69
2023/06/13 02:48:22;;;;;;;1.53;1.40;;;14.40;63.30;;;;;;5053066;28;20241;-69
2023/06/13 02:50:48;;;;;;;2.93;1.63;;;14.40;62.20;;;;;;5053262;28;20168;-70
2023/06/13 02:53:14;;;;;;;0.50;0.50;;;14.30;62.60;;;;;;5053260;28;20413;-70
2023/06/13 02:55:46;;;;;;;2.53;1.70;;;14.30;63.40;;;;;;5052930;28;20434;-70
2023/06/13 02:58:12;;;;;;;0.90;0.87;;;14.30;63.00;;;;;;5053395;28;20261;-70
2023/06/13 03:00:38;;;;;;;0.80;0.80;;;14.30;63.40;;;;;;5053299;28;20511;-70
2023/06/13 03:03:04;;;;;;;2.93;2.10;;;14.30;62.60;;;;;;5052976;28;21011;-70
2023/06/13 03:05:30;;;;;;;0.73;0.73;;;14.30;63.50;;;;;;5052798;28;20189;-71
2023/06/13 03:07:58;;;;;;;1.37;1.37;;;14.30;62.10;;;;;;5051902;28;20436;-71
2023/06/13 03:10:24;;;;;;;2.17;1.90;;;14.30;61.40;;;;;;5053268;28;20787;-70
2023/06/13 03:12:50;;;;;;;0.77;0.77;;;14.30;61.50;;;;;;5055490;28;20411;-71
2023/06/13 03:15:17;;;;;;;1.70;1.60;;;14.30;61.10;;;;;;5057033;28;20428;-71
2023/06/13 03:17:44;;;;;;;1.60;1.50;;;14.30;60.70;;;;;;5056777;28;20884;-70
2023/06/13 03:20:11;;;;;;;1.13;1.03;;;14.30;61.10;;;;;;5056917;28;20551;-70
2023/06/13 03:22:37;;;;;;;0.90;0.80;;;14.40;61.50;;;;;;5056907;28;20760;-70
2023/06/13 03:25:06;;;;;;;1.23;1.20;;;14.30;75.30;;;;;;5056963;28;20401;-70
2023/06/13 03:27:33;;;;;;;1.30;1.30;;;14.40;62.50;;;;;;5056718;28;20401;-71
2023/06/13 03:29:59;;;;;;;2.43;2.23;;;14.40;63.10;;;;;;5056872;28;20752;-69
2023/06/13 03:32:25;;;;;;;0.93;0.93;;;14.30;61.30;;;;;;5056669;28;20395;-70
2023/06/13 03:34:52;;;;;;;1.63;1.53;;;14.40;61.50;;;;;;5055372;28;20400;-71
2023/06/13 03:37:20;;;;;;;1.00;1.00;;;14.50;59.50;;;;;;5054771;28;20462;-70
2023/06/13 03:39:45;;;;;;;0.80;0.60;;;14.50;61.20;;;;;;5055502;28;20436;-69
2023/06/13 03:46:16;;;;;;;1.23;1.03;;;14.50;60.50;;;;;;5014538;28;20332;-73
2023/06/13 03:48:42;;;;;;;1.07;1.07;;;14.50;60.20;;;;;;5015050;28;20552;-72
2023/06/13 03:51:08;;;;;;;0.90;0.90;;;14.40;62.90;;;;;;5015545;28;20498;-72
2023/06/13 03:53:33;;;;;;;1.43;0.97;;;14.40;63.10;;;;;;5015326;28;20682;-71
2023/06/13 03:56:00;;;;;;;1.03;1.00;;;14.20;62.80;;;;;;5015412;28;20176;-72
2023/06/13 03:58:26;;;;;;;0.40;0.40;;;14.20;61.10;;;;;;5015639;28;20740;-72
2023/06/13 04:00:54;;;;;;;1.33;1.07;;;14.20;62.10;;;;;;5016605;28;20411;-72
2023/06/13 04:03:20;;;;;;;1.67;1.40;;;14.30;60.80;;;;;;5016146;28;20388;-72
2023/06/13 04:05:45;;;;;;;1.37;1.27;;;14.30;62.00;;;;;;5016351;28;20928;-72
2023/06/13 04:08:11;;;;;;;0.63;0.63;;;14.30;62.30;;;;;;5016428;28;20658;-72
2023/06/13 04:10:37;;;;;;;2.33;1.60;;;14.20;61.60;;;;;;5016359;28;20407;-72
2023/06/13 04:13:03;;;;;;;2.13;1.93;;;14.20;61.80;;;;;;5016021;28;20183;-72
2023/06/13 04:15:29;;;;;;;1.20;1.10;;;14.20;61.90;;;;;;5016384;28;20407;-71
2023/06/13 04:17:55;;;;;;;1.20;1.20;;;14.20;64.30;;;;;;5014899;28;20253;-73
2023/06/13 04:20:23;;;;;;;0.70;0.70;;;14.20;62.00;;;;;;5016356;28;20467;-72
2023/06/13 04:22:49;;;;;;;0.80;0.80;;;14.30;61.80;;;;;;5015673;28;20193;-72
2023/06/13 04:25:15;;;;;;;0.90;0.60;;;14.40;63.10;;;;;;5015940;28;20965;-73
2023/06/13 04:27:43;;;;;;;2.60;1.40;;;14.70;60.90;;;;;;5015983;28;20984;-71
2023/06/13 04:30:09;;;;;;;1.13;1.10;;;14.90;60.60;;;;;;5015916;28;20171;-73
2023/06/13 04:32:37;;;;;;;1.03;1.03;;;15.30;60.40;;;;;;5015652;28;20913;-70
2023/06/13 04:35:03;;;;;;;1.77;1.67;;;15.80;59.30;;;;;;5015805;28;20497;-70
2023/06/13 04:37:30;;;;;;;1.97;1.87;;;16.70;76.60;;;;;;5015742;28;20445;-71
2023/06/13 04:39:56;;;;;;;0.73;0.73;;;16.60;57.50;;;;;;5015724;28;20422;-71
2023/06/13 04:42:29;;;;;;;1.30;0.93;;;16.90;55.70;;;;;;5015654;28;20410;-70
2023/06/13 04:44:58;;;;;;;0.60;0.60;;;16.90;55.90;;;;;;5015531;28;20473;-71
2023/06/13 04:47:24;;;;;;;0.70;0.70;;;16.60;72.60;;;;;;5015341;28;20431;-71
2023/06/13 04:49:58;;;;;;;1.43;1.10;;;16.80;56.10;;;;;;5015503;28;20414;-70
2023/06/13 04:52:32;;;;;;;0.80;0.80;;;17.00;55.20;;;;;;5015511;28;20402;-71
2023/06/13 04:55:00;;;;;;;0.40;0.40;;;17.10;54.60;;;;;;5014406;28;20427;-69
2023/06/13 04:57:29;;;;;;;0.80;0.80;;;17.50;72.00;;;;;;5014139;28;20422;-70
2023/06/13 04:59:56;;;;;;;4.53;2.00;;;17.30;54.50;;;;;;5015348;28;20883;-71
2023/06/13 05:02:22;;;;;;;0.63;0.63;;;17.10;54.00;;;;;;5015196;28;20774;-71
2023/06/13 05:04:48;;;;;;;0.80;0.80;;;17.10;55.30;;;;;;5015283;28;20866;-71
2023/06/13 05:07:15;;;;;;;1.30;1.30;;;17.50;63.80;;;;;;5015269;28;20461;-70
2023/06/13 05:09:43;;;;;;;3.53;1.90;;;17.20;54.50;;;;;;5015082;28;20411;-69
2023/06/13 05:12:10;;;;;;;2.73;1.03;;;17.30;54.20;;;;;;5015078;28;20446;-69
2023/06/13 05:14:42;;;;;;;0.90;0.67;;;17.30;52.30;;;;;;5015280;28;20425;-71
2023/06/13 05:17:09;;;;;;;1.80;1.03;;;17.40;54.80;;;;;;5015018;28;20414;-71
2023/06/13 05:19:35;;;;;;;0.70;0.70;;;17.80;54.60;;;;;;5014886;28;20428;-70
2023/06/13 05:22:10;;;;;;;1.70;1.03;;;17.70;53.30;;;;;;5015126;28;20924;-71
2023/06/13 05:24:36;;;;;;;0.77;0.77;;;17.50;53.40;;;;;;5014981;28;20549;-70
2023/06/13 05:27:02;;;;;;;1.00;1.00;;;17.20;52.90;;;;;;5014588;28;20530;-71
2023/06/13 05:29:28;;;;;;;0.70;0.60;;;;;;;;;;5014777;28;20427;-72
2023/06/13 05:31:53;;;;;;;1.20;1.10;;;17.20;52.20;;;;;;5015047;28;20171;-71
2023/06/13 05:34:20;;;;;;;2.43;0.80;;;17.40;53.80;;;;;;5014633;28;20415;-71
2023/06/13 05:36:46;;;;;;;0.60;0.60;;;17.50;53.40;;;;;;5014802;28;20175;-71
2023/06/13 05:39:12;;;;;;;1.93;1.70;;;17.50;52.40;;;;;;5015057;28;20546;-72
2023/06/13 05:41:39;;;;;;;1.80;1.30;;;17.70;52.70;;;;;;5015022;28;20909;-70
2023/06/13 05:44:05;;;;;;;1.73;1.17;;;17.90;52.60;;;;;;5013871;28;20458;-70
2023/06/13 05:46:31;;;;;;;0.70;0.70;;;18.00;52.90;;;;;;5013924;28;20460;-70
2023/06/13 05:48:56;;;;;;;1.47;0.90;;;18.10;52.60;;;;;;5014310;28;20234;-73
2023/06/13 05:51:22;;;;;;;0.73;0.70;;;18.20;54.00;;;;;;5014376;28;20610;-71
2023/06/13 05:53:47;;;;;;;0.83;0.60;;;18.40;54.80;;;;;;5014147;28;20181;-70
2023/06/13 05:56:13;;;;;;;6.13;0.70;;;18.60;52.70;;;;;;5014685;28;20176;-70
2023/06/13 05:58:39;;;;;;;0.97;0.90;;;18.50;52.30;;;;;;5014624;28;20192;-70
2023/06/13 06:01:04;;;;;;;1.83;1.70;;;18.50;52.90;;;;;;5014413;28;20526;-70
2023/06/13 06:03:31;;;;;;;1.60;1.50;;;18.60;51.60;;;;;;5013372;28;20230;-71
2023/06/13 06:05:57;;;;;;;0.90;0.90;;;18.70;49.70;;;;;;5013544;28;20168;-71
2023/06/13 06:08:23;;;;;;;1.70;1.60;;;19.00;50.40;;;;;;5014020;28;20433;-70
2023/06/13 06:10:48;;;;;;;1.07;0.97;;;19.40;49.80;;;;;;5014165;28;20178;-71
2023/06/13 06:13:14;;;;;;;0.70;0.70;;;20.40;50.80;;;;;;5013889;28;20266;-71
2023/06/13 06:15:40;;;;;;;1.30;1.10;;;21.70;50.40;;;;;;5014401;28;20627;-71
2023/06/13 06:18:06;;;;;;;1.00;1.00;;;22.90;46.40;;;;;;5014113;28;20221;-71
2023/06/13 06:20:32;;;;;;;0.80;0.73;;;23.70;43.60;;;;;;5013921;28;20392;-71
2023/06/13 06:22:58;;;;;;;1.00;0.50;;;25.10;44.00;;;;;;5028853;28;20418;-70
2023/06/13 06:25:23;;;;;;;1.03;0.80;;;27.00;40.90;;;;;;5013928;28;20179;-72
2023/06/13 06:27:52;;;;;;;1.07;0.87;;;28.90;37.10;;;;;;5013620;28;20508;-71
2023/06/13 06:30:18;;;;;;;0.70;0.70;;;29.30;35.80;;;;;;5012663;28;20531;-72
2023/06/13 06:32:44;;;;;;;0.80;0.80;;;29.60;35.10;;;;;;5011232;28;20413;-72
2023/06/13 06:35:10;;;;;;;1.37;0.80;;;30.10;34.60;;;;;;5012873;28;20167;-72
2023/06/13 06:37:36;;;;;;;0.87;0.80;;;31.30;32.80;;;;;;5014188;28;20433;-72
2023/06/13 06:40:03;;;;;;;0.60;0.60;;;31.70;31.10;;;;;;5013564;28;20406;-72
2023/06/13 06:42:29;;;;;;;0.60;0.60;;;32.20;31.40;;;;;;5013590;28;20486;-72
2023/06/13 06:44:54;;;;;;;1.20;1.10;;;32.90;31.30;;;;;;5014140;28;20466;-71
2023/06/13 06:47:20;;;;;;;1.10;1.00;;;33.80;30.80;;;;;;5013731;28;20191;-71
2023/06/13 06:49:46;;;;;;;1.50;1.10;;;34.00;29.30;;;;;;5017800;28;20174;-71
2023/06/13 06:52:11;;;;;;;1.40;1.20;;;33.50;29.10;;;;;;5017390;28;20210;-72
2023/06/13 06:54:37;;;;;;;1.40;1.13;;;33.40;30.30;;;;;;5017644;28;20254;-71
2023/06/13 06:57:03;;;;;;;0.93;0.93;;;33.10;28.50;;;;;;5017979;28;20207;-73
2023/06/13 06:59:29;;;;;;;1.13;1.03;;;33.40;29.50;;;;;;5017397;28;20195;-71
2023/06/13 07:01:55;;;;;;;1.17;0.90;;;33.50;28.10;;;;;;5017942;28;20489;-71
2023/06/13 07:04:22;;;;;;;0.87;0.87;;;33.30;28.00;;;;;;5017063;28;20561;-71
2023/06/13 07:06:48;;;;;;;1.37;1.10;;;32.40;28.30;;;;;;5017488;28;20425;-71
2023/06/13 07:09:14;;;;;;;1.27;1.03;;;31.70;29.10;;;;;;5017488;28;20886;-71
2023/06/13 07:11:40;;;;;;;0.90;0.80;;;30.60;31.50;;;;;;5017742;28;20563;-71
2023/06/13 07:14:06;;;;;;;0.80;0.80;;;30.30;32.40;;;;;;5017026;28;20414;-71
2023/06/13 07:16:31;;;;;;;1.00;0.90;;;30.50;32.00;;;;;;5017783;28;20215;-73
2023/06/13 07:18:57;;;;;;;1.77;0.77;;;30.50;30.90;;;;;;5016583;28;20678;-71
2023/06/13 07:21:23;;;;;;;0.90;0.80;;;30.40;30.60;;;;;;5017253;28;20182;-72
2023/06/13 07:23:48;;;;;;;1.17;1.07;;;29.90;32.10;;;;;;5017017;28;20230;-72
2023/06/13 07:26:14;;;;;;;1.27;0.80;;;29.00;31.80;;;;;;5017018;28;20206;-72
2023/06/13 07:28:40;;;;;;;0.87;0.87;;;28.40;34.00;;;;;;5017095;28;20199;-71
2023/06/13 07:31:06;;;;;;;0.97;0.70;;;28.40;34.70;;;;;;5016834;28;20410;-71
2023/06/13 07:33:32;;;;;;;0.97;0.97;;;28.30;32.10;;;;;;5016783;28;20514;-70
2023/06/13 07:35:57;;;;;;;1.40;0.80;;;28.50;33.90;;;;;;5016904;28;20176;-71
2023/06/13 07:38:26;;;;;;;0.80;0.70;;;28.80;34.20;;;;;;5016861;28;20195;-70
2023/06/13 07:40:52;;;;;;;1.23;0.87;;;28.50;34.40;;;;;;5016712;28;20262;-71
2023/06/13 07:43:18;;;;;;;1.40;0.90;;;28.50;34.10;;;;;;5016734;28;20542;-71
2023/06/13 07:45:43;;;;;;;1.00;0.90;;;28.60;33.10;;;;;;5016948;28;20176;-71
2023/06/13 07:48:09;;;;;;;1.37;0.93;;;29.20;33.70;;;;;;5016674;28;20453;-71
2023/06/13 07:50:36;;;;;;;0.93;0.80;;;;;;;;;;5016553;28;20529;-72
2023/06/13 07:53:02;;;;;;;0.83;0.83;;;31.00;32.10;;;;;;5016626;28;20418;-71
2023/06/13 07:55:27;;;;;;;0.70;0.70;;;32.30;30.60;;;;;;5016987;28;20406;-71
2023/06/13 07:57:54;;;;;;;1.53;1.20;;;33.20;30.20;;;;;;5016506;28;20258;-71
2023/06/13 08:00:20;;;;;;;0.70;0.60;;;34.50;29.10;;;;;;5017160;28;20202;-71
2023/06/13 08:02:46;;;;;;;1.00;0.90;;;35.90;27.90;;;;;;5016244;28;20418;-72
2023/06/13 08:05:13;;;;;;;1.43;1.23;;;36.30;27.20;;;;;;5016651;28;20222;-71
2023/06/13 08:07:39;;;;;;;1.30;1.10;;;36.60;27.00;;;;;;5016183;28;20431;-71
2023/06/13 08:10:05;;;;;;;0.50;0.50;;;36.90;26.90;;;;;;5016706;28;20475;-71
2023/06/13 08:12:31;;;;;;;1.00;0.80;;;36.40;27.00;;;;;;5016438;28;20176;-72
2023/06/13 08:14:57;;;;;;;0.97;0.97;;;36.60;27.80;;;;;;5015887;28;20411;-71
2023/06/13 08:17:24;;;;;;;1.50;1.20;;;37.00;33.10;;;;;;5016400;28;20438;-72
2023/06/13 08:19:50;;;;;;;0.87;0.87;;;36.80;26.70;;;;;;5014236;28;20710;-71
2023/06/13 08:22:17;;;;;;;0.97;0.90;;;37.00;26.30;;;;;;5015606;28;20898;-71
2023/06/13 08:24:42;;;;;;;1.13;1.10;;;36.80;27.10;;;;;;5016032;28;20568;-71
2023/06/13 08:27:10;;;;;;;1.37;1.20;;;37.30;26.50;;;;;;5016139;28;20866;-71
2023/06/13 08:29:36;;;;;;;1.30;1.00;;;37.40;26.20;;;;;;5015899;28;20194;-72
2023/06/13 08:32:02;;;;;;;1.57;1.33;;;37.90;26.10;;;;;;5016019;28;20407;-71
2023/06/13 08:34:27;;;;;;;1.17;0.80;;;38.00;25.30;;;;;;5015702;28;20414;-72
2023/06/13 08:36:53;;;;;;;2.17;1.03;;;37.60;26.70;;;;;;5015850;28;20465;-71
2023/06/13 08:39:23;;;;;;;1.37;1.07;;;37.10;26.70;;;;;;5015743;28;20314;-71
2023/06/13 08:41:49;;;;;;;0.97;0.97;;;36.90;26.10;;;;;;5015754;28;20419;-71
2023/06/13 08:44:17;;;;;;;0.60;0.60;;;37.20;25.40;;;;;;5015315;28;20945;-71
2023/06/13 08:46:43;;;;;;;1.30;0.90;;;37.50;25.10;;;;;;5015494;28;20417;-71
2023/06/13 08:49:09;;;;;;;6.40;1.23;;;37.30;26.40;;;;;;5015438;28;20446;-71
2023/06/13 08:51:37;;;;;;;2.90;1.20;;;37.60;26.90;;;;;;5015617;28;20251;-72
2023/06/13 08:54:05;;;;;;;1.00;1.00;;;37.90;25.80;;;;;;5014678;28;20753;-71
2023/06/13 08:56:37;;;;;;;1.77;1.03;;;37.70;24.70;;;;;;5015118;28;20476;-71
2023/06/13 08:59:08;;;;;;;0.83;0.67;;;37.50;25.80;;;;;;5015510;28;20434;-72
2023/06/13 09:01:37;;;;;;;1.40;0.80;;;36.70;25.80;;;;;;5015284;28;20476;-75
2023/06/13 09:04:06;;;;;;;1.03;1.00;;;36.20;27.40;;;;;;5015488;28;20489;-74
2023/06/13 09:06:33;;;;;;;0.83;0.83;;;36.50;26.50;;;;;;5015170;28;20418;-72
2023/06/13 09:09:00;;;;;;;0.50;0.50;;;36.50;27.50;;;;;;5015264;28;20433;-74
2023/06/13 09:11:28;;;;;;;0.93;0.83;;;36.80;26.70;;;;;;5015052;28;20442;-73
2023/06/13 09:13:57;;;;;;;1.67;1.13;;;36.10;25.70;;;;;;5015031;28;20441;-72
2023/06/13 09:16:23;;;;;;;1.10;0.90;;;35.10;27.40;;;;;;5014818;28;20773;-71
2023/06/13 09:18:49;;;;;;;1.10;0.87;;;33.60;27.00;;;;;;5015478;28;20442;-71
2023/06/13 09:21:20;;;;;;;1.37;1.27;;;32.80;29.20;;;;;;5015168;28;20414;-72
2023/06/13 09:23:48;;;;;;;1.20;1.10;;;33.30;28.80;;;;;;5014936;28;20462;-73
2023/06/13 09:26:17;;;;;;;1.20;1.10;;;34.00;29.20;;;;;;5013909;28;20434;-72
2023/06/13 09:28:47;;;;;;;2.30;1.50;;;34.60;28.50;;;;;;5014052;28;20426;-72
2023/06/13 09:31:13;;;;;;;1.00;0.70;;;34.90;27.90;;;;;;5013287;28;20437;-72
2023/06/13 09:33:39;;;;;;;0.93;0.87;;;35.30;28.20;;;;;;5013611;28;20849;-72
2023/06/13 09:36:06;;;;;;;2.00;1.00;;;35.60;27.70;;;;;;5013435;28;20407;-73
2023/06/13 09:38:37;;;;;;;1.53;1.43;;;35.90;27.40;;;;;;5013852;28;20453;-74
2023/06/13 09:41:07;;;;;;;1.00;1.00;;;35.80;25.90;;;;;;5014179;28;20414;-74
2023/06/13 09:43:33;;;;;;;1.10;0.87;;;35.20;27.20;;;;;;5013908;28;20803;-73
2023/06/13 09:46:00;;;;;;;4.33;1.37;;;35.00;26.50;;;;;;5014524;28;20445;-73
2023/06/13 09:48:25;;;;;;;1.33;0.80;;;35.30;28.30;;;;;;5014352;28;21024;-73
2023/06/13 09:50:53;;;;;;;1.30;1.10;;;35.50;27.80;;;;;;5014429;28;20486;-73
2023/06/13 09:53:20;;;;;;;0.63;0.63;;;35.60;27.90;;;;;;5013149;28;20190;-73
2023/06/13 09:55:48;;;;;;;1.13;1.00;;;35.50;28.20;;;;;;5014483;28;20414;-74
2023/06/13 09:58:14;;;;;;;1.67;0.90;;;35.30;27.20;;;;;;5014308;28;20457;-73
2023/06/13 10:00:40;;;;;;;1.43;1.33;;;35.00;25.70;;;;;;5014482;28;20878;-74
2023/06/13 10:03:06;;;;;;;1.40;1.10;;;34.80;25.70;;;;;;5014353;28;20634;-73
2023/06/13 10:05:31;;;;;;;1.03;0.90;;;34.70;28.40;;;;;;5014221;28;20407;-73
2023/06/13 10:07:57;;;;;;;0.93;0.93;;;34.70;26.90;;;;;;5014361;28;20522;-73
2023/06/13 10:10:23;;;;;;;1.67;0.80;;;34.30;27.90;;;;;;5014367;28;20175;-72
2023/06/13 10:12:51;;;;;;;1.10;1.10;;;33.40;28.20;;;;;;5013952;28;20167;-73
2023/06/13 10:15:29;;;;;;;1.13;1.00;;;32.90;28.50;;;;;;5014228;28;20263;-73
2023/06/13 10:17:57;;;;;;;1.33;0.90;;;31.80;29.50;;;;;;5014026;28;20438;-74
2023/06/13 10:20:26;;;;;;;2.00;1.73;;;31.50;34.20;;;;;;5014030;28;20421;-73
2023/06/13 10:22:51;;;;;;;1.00;0.90;;;31.80;30.00;;;;;;5013604;28;20423;-73
2023/06/13 10:25:21;;;;;;;1.10;1.00;;;32.10;29.80;;;;;;5013873;28;20928;-73
2023/06/13 10:27:51;;;;;;;2.50;1.00;;;32.20;30.20;;;;;;5014007;28;20191;-74
2023/06/13 10:30:31;;;;;;;1.37;1.10;;;32.30;29.20;;;;;;5013874;28;20410;-73
2023/06/13 10:33:18;;;;;;;0.80;0.80;;;32.30;30.20;;;;;;5013861;28;20406;-73
2023/06/13 10:35:51;;;;;;;0.80;0.80;;;31.90;30.50;;;;;;5014046;28;20432;-73
2023/06/13 10:38:45;;;;;;;1.23;0.83;;;31.90;29.80;;;;;;5013895;28;20426;-74
2023/06/13 10:41:58;;;;;;;2.20;0.90;;;31.90;30.60;;;;;;5013802;28;20403;-73
2023/06/13 10:44:28;;;;;;;1.43;1.07;;;31.60;33.50;;;;;;5011673;28;20497;-73
2023/06/13 10:46:54;;;;;;;0.77;0.77;;;31.40;30.50;;;;;;5013789;28;20410;-72
2023/06/13 10:49:19;;;;;;;1.00;1.00;;;31.20;30.30;;;;;;5012436;28;20857;-73
2023/06/13 10:51:45;;;;;;;6.03;1.50;;;31.10;35.20;;;;;;5013678;28;20407;-73
2023/06/13 10:54:13;;;;;;;1.13;1.03;;;30.60;29.80;;;;;;5013552;28;20259;-72
2023/06/13 10:56:43;;;;;;;1.23;0.97;;;30.00;34.10;;;;;;5013968;28;20447;-72
2023/06/13 10:59:15;;;;;;;1.47;1.13;;;29.80;32.70;;;;;;5013600;28;20612;-73
2023/06/13 11:01:42;;;;;;;1.40;0.83;;;29.20;31.80;;;;;;5013620;28;20972;-73
2023/06/13 11:04:17;;;;;;;1.30;0.90;;;28.90;35.20;;;;;;5013428;28;20503;-73
2023/06/13 11:06:46;;;;;;;2.80;1.63;;;28.80;36.30;;;;;;5013662;28;20425;-73
2023/06/13 11:09:25;;;;;;;1.10;1.00;;;28.60;36.70;;;;;;5013378;28;20429;-73
2023/06/13 11:11:52;;;;;;;1.10;1.00;;;28.50;33.00;;;;;;5013598;28;20497;-73
2023/06/13 11:14:26;;;;;;;1.80;1.10;;;28.40;34.70;;;;;;5013456;28;20513;-73
2023/06/13 11:16:52;;;;;;;0.83;0.80;;;28.20;35.90;;;;;;5013928;28;20836;-72
2023/06/13 11:19:27;;;;;;;2.40;1.37;;;28.10;36.10;;;;;;5013365;28;20468;-73
2023/06/13 11:22:02;;;;;;;1.37;1.07;;;27.90;35.70;;;;;;5013632;28;20387;-73
2023/06/13 11:24:29;;;;;;;1.83;1.73;;;27.60;35.10;;;;;;5011981;28;20462;-73
2023/06/13 11:26:56;;;;;;;2.23;1.27;;;27.50;34.80;;;;;;5013280;28;20381;-73
2023/06/13 11:29:22;;;;;;;1.07;1.07;;;27.50;34.50;;;;;;5013292;28;20779;-73
2023/06/13 11:31:52;;;;;;;0.80;0.80;;;26.40;37.30;;;;;;5013248;28;20411;-73
2023/06/13 11:34:21;;;;;;;1.30;1.13;;;25.90;39.30;;;;;;5015757;28;20422;-73
2023/06/13 11:36:47;;;;;;;1.27;1.10;;;25.80;37.50;;;;;;5016797;28;20429;-72
2023/06/13 11:39:22;;;;;;;0.70;0.70;;;25.90;41.70;;;;;;5016717;28;20980;-73
2023/06/13 11:41:48;;;;;;;1.47;0.80;;;26.30;38.60;;;;;;5015680;28;20389;-73
2023/06/13 11:44:14;;;;;;;1.53;1.43;;;26.70;39.20;;;;;;5016623;28;20525;-73
2023/06/13 11:46:43;;;;;;;1.07;0.80;;;26.90;38.50;;;;;;5016797;28;20527;-72
2023/06/13 11:49:13;;;;;;;0.93;0.93;;;27.00;35.90;;;;;;5016572;28;20199;-73
2023/06/13 11:51:38;;;;;;;1.00;0.90;;;27.00;35.90;;;;;;5016677;28;20472;-72
2023/06/13 11:54:04;;;;;;;1.20;1.10;;;27.00;35.90;;;;;;5016421;28;20487;-72
2023/06/13 11:56:34;;;;;;;1.10;1.10;;;27.10;37.70;;;;;;5016717;28;20179;-72
2023/06/13 11:59:00;;;;;;;1.07;1.07;;;27.00;37.90;;;;;;5016567;28;20191;-73
2023/06/13 12:01:26;;;;;;;1.90;1.53;;;27.10;36.90;;;;;;5016631;28;20504;-73
2023/06/13 12:03:55;;;;;;;1.23;1.13;;;27.20;35.80;;;;;;5016419;28;20195;-74
2023/06/13 12:06:22;;;;;;;2.30;1.50;;;27.20;35.50;;;;;;5016380;28;20422;-73
2023/06/13 12:08:50;;;;;;;1.53;1.43;;;26.70;36.00;;;;;;5016960;28;20469;-72
2023/06/13 12:11:17;;;;;;;0.93;0.87;;;25.90;35.40;;;;;;5016282;28;20482;-73
2023/06/13 12:13:57;;;;;;;2.03;1.20;;;25.50;37.10;;;;;;5015792;28;20418;-72
2023/06/13 12:16:25;;;;;;;1.43;1.30;;;25.60;36.90;;;;;;5015744;28;20397;-73
2023/06/13 12:18:54;;;;;;;2.40;1.27;;;25.30;37.20;;;;;;5015863;28;20830;-73
2023/06/13 12:21:28;;;;;;;2.33;2.23;;;25.20;35.80;;;;;;5016122;28;20395;-73
2023/06/13 12:23:56;;;;;;;1.40;1.30;;;25.30;38.00;;;;;;5015866;28;20434;-73
2023/06/13 12:26:22;;;;;;;1.57;1.10;;;25.70;38.40;;;;;;5015453;28;20418;-72
2023/06/13 12:28:49;;;;;;;0.83;0.83;;;26.00;35.20;;;;;;5015975;28;20479;-72
2023/06/13 12:31:15;;;;;;;1.47;1.37;;;26.00;39.90;;;;;;5014703;28;20608;-73
2023/06/13 12:33:41;;;;;;;1.70;1.20;;;26.00;36.90;;;;;;5015672;28;20393;-72
2023/06/13 12:36:09;;;;;;;1.27;1.17;;;25.80;36.80;;;;;;5016063;28;20508;-72
2023/06/13 12:38:35;;;;;;;1.67;1.57;;;25.60;35.30;;;;;;5015734;28;20957;-73
2023/06/13 12:41:11;;;;;;;1.67;1.57;;;25.50;36.00;;;;;;5015904;28;20405;-71
2023/06/13 12:43:40;;;;;;;11.43;2.30;;;25.20;37.80;;;;;;5015507;28;20214;-72
2023/06/13 12:46:05;;;;;;;1.87;1.63;;;25.30;39.40;;;;;;5015790;28;20877;-72
2023/06/13 12:48:37;;;;;;;1.83;1.60;;;25.50;37.60;;;;;;5015412;28;20435;-72
2023/06/13 12:51:05;;;;;;;1.00;0.90;;;25.70;38.00;;;;;;5015709;28;20202;-72
2023/06/13 12:53:31;;;;;;;1.20;1.13;;;25.90;36.70;;;;;;5015513;28;20389;-73